createdAt,value
2023-06-24T00:03:04.572Z,6.40
2023-06-24T00:08:08.216Z,6.30
2023-06-24T00:13:13.823Z,6.30
2023-06-24T00:18:16.712Z,6.40
2023-06-24T00:23:27.781Z,6.50
2023-06-24T00:28:32.302Z,6.60
2023-06-24T00:33:37.550Z,6.40
2023-06-24T00:38:41.243Z,6.10
2023-06-24T00:43:44.102Z,6.80
2023-06-24T00:48:46.902Z,6.80
2023-06-24T00:53:51.096Z,6.90
2023-06-24T00:58:54.445Z,6.90
2023-06-24T01:03:57.440Z,6.30
2023-06-24T01:09:01.401Z,6.40
2023-06-24T01:14:04.418Z,7.00
2023-06-24T01:19:30.100Z,6.00
2023-06-24T01:24:59.400Z,6.50
2023-06-24T01:30:17.270Z,6.20
2023-06-24T01:35:27.854Z,7.00
2023-06-24T01:40:45.324Z,7.40
2023-06-24T01:45:52.508Z,6.80
2023-06-24T01:51:12.010Z,7.00
2023-06-24T01:56:17.466Z,6.60
2023-06-24T02:01:22.080Z,7.00
2023-06-24T02:06:27.991Z,7.30
2023-06-24T02:11:33.686Z,7.00
2023-06-24T02:16:39.162Z,7.30
2023-06-24T02:21:43.345Z,7.50
2023-06-24T02:26:49.661Z,6.50
2023-06-24T02:31:52.620Z,6.70
2023-06-24T02:36:55.414Z,6.30
2023-06-24T02:41:58.238Z,5.90
2023-06-24T02:47:01.613Z,6.60
2023-06-24T02:52:05.030Z,6.00
2023-06-24T02:57:09.798Z,6.10
2023-06-24T03:02:13.097Z,6.70
2023-06-24T03:07:16.189Z,6.70
2023-06-24T03:12:19.214Z,6.30
2023-06-24T03:17:22.119Z,6.70
2023-06-24T03:22:25.458Z,7.00
2023-06-24T03:27:28.320Z,6.50
2023-06-24T03:32:31.233Z,6.90
2023-06-24T03:37:34.093Z,6.10
2023-06-24T03:42:37.059Z,5.70
2023-06-24T03:47:40.024Z,6.50
2023-06-24T03:52:42.835Z,6.90
2023-06-24T03:57:45.659Z,7.00
2023-06-24T04:02:49.078Z,7.40
2023-06-24T04:07:53.530Z,7.50
2023-06-24T04:12:56.467Z,6.50
2023-06-24T04:17:59.321Z,6.70
2023-06-24T04:23:02.293Z,6.50
2023-06-24T04:28:08.090Z,7.40
2023-06-24T04:33:10.867Z,7.10
2023-06-24T04:38:19.201Z,6.70
2023-06-24T04:43:23.004Z,6.60
2023-06-24T04:48:26.092Z,6.40
2023-06-24T04:53:29.104Z,7.00
2023-06-24T04:58:32.073Z,6.60
2023-06-24T05:03:34.858Z,6.80
2023-06-24T05:08:37.673Z,7.10
2023-06-24T05:13:41.152Z,6.60
2023-06-24T05:18:46.504Z,7.50
2023-06-24T05:23:49.440Z,7.30
2023-06-24T05:28:52.386Z,7.00
2023-06-24T05:33:55.322Z,6.80
2023-06-24T05:38:58.175Z,6.90
2023-06-24T05:44:05.837Z,7.30
2023-06-24T05:49:08.687Z,5.70
2023-06-24T05:54:11.581Z,6.30
2023-06-24T05:59:14.397Z,6.90
2023-06-24T06:04:17.324Z,6.80
2023-06-24T06:09:22.013Z,6.70
2023-06-24T06:14:28.223Z,6.30
2023-06-24T06:19:31.712Z,6.20
2023-06-24T06:24:37.007Z,5.70
2023-06-24T06:29:39.823Z,5.90
2023-06-24T06:34:44.369Z,6.00
2023-06-24T06:39:47.354Z,5.90
2023-06-24T06:44:50.095Z,6.10
2023-06-24T06:49:52.957Z,6.50
2023-06-24T06:54:56.444Z,6.00
2023-06-24T06:59:59.855Z,5.70
2023-06-24T07:05:02.998Z,5.80
2023-06-24T07:10:07.297Z,5.30
2023-06-24T07:15:13.384Z,5.40
2023-06-24T07:20:16.564Z,5.80
2023-06-24T07:25:19.435Z,5.30
2023-06-24T07:30:22.287Z,5.40
2023-06-24T07:35:25.658Z,5.00
2023-06-24T07:40:28.518Z,4.70
2023-06-24T07:45:31.407Z,5.70
2023-06-24T07:50:35.722Z,4.60
2023-06-24T07:55:38.696Z,5.40
2023-06-24T08:00:42.308Z,4.30
2023-06-24T08:05:46.325Z,4.60
2023-06-24T08:10:50.875Z,4.70
2023-06-24T08:15:53.733Z,4.10
2023-06-24T08:20:56.762Z,3.90
2023-06-24T08:26:12.226Z,3.70
2023-06-24T08:31:19.920Z,3.30
2023-06-24T08:41:28.412Z,3.50
2023-06-24T08:46:34.789Z,3.40
2023-06-24T08:51:44.020Z,3.50
2023-06-24T08:56:46.889Z,3.30
2023-06-24T09:01:51.473Z,3.70
2023-06-24T09:06:54.436Z,3.00
2023-06-24T09:12:12.421Z,3.40
2023-06-24T09:17:18.683Z,3.60
2023-06-24T09:22:21.610Z,3.40
2023-06-24T09:27:25.228Z,3.10
2023-06-24T09:32:31.934Z,3.40
2023-06-24T09:37:35.402Z,3.50
2023-06-24T09:42:38.390Z,3.30
2023-06-24T09:47:41.549Z,3.20
2023-06-24T09:52:46.394Z,3.00
2023-06-24T09:57:54.569Z,3.10
2023-06-24T10:03:00.809Z,3.20
2023-06-24T10:08:08.130Z,3.00
2023-06-24T10:13:11.207Z,3.10
2023-06-24T10:18:32.804Z,3.20
2023-06-24T10:23:48.418Z,2.50
2023-06-24T10:29:07.416Z,2.70
2023-06-24T10:34:14.020Z,2.60
2023-06-24T10:39:41.292Z,3.10
2023-06-24T10:44:50.505Z,2.80
2023-06-24T10:49:53.445Z,2.70
2023-06-24T10:54:58.697Z,2.80
2023-06-24T11:00:03.041Z,2.70
2023-06-24T11:05:07.100Z,2.70
2023-06-24T11:10:14.289Z,3.10
2023-06-24T11:15:18.533Z,2.80
2023-06-24T11:20:21.943Z,3.30
2023-06-24T11:25:24.953Z,3.40
2023-06-24T11:30:29.479Z,3.20
2023-06-24T11:35:36.457Z,3.20
2023-06-24T11:40:40.398Z,3.40
2023-06-24T11:45:43.281Z,3.80
2023-06-24T11:50:55.150Z,2.80
2023-06-24T11:55:58.548Z,3.30
2023-06-24T12:01:01.745Z,3.30
2023-06-24T12:06:04.648Z,3.60
2023-06-24T12:11:07.637Z,3.70
2023-06-24T12:16:10.419Z,3.00
2023-06-24T12:21:13.380Z,3.30
2023-06-24T12:26:16.628Z,3.40
2023-06-24T12:31:19.430Z,3.60
2023-06-24T12:36:23.554Z,3.30
2023-06-24T12:41:28.265Z,3.00
2023-06-24T12:46:31.094Z,3.80
2023-06-24T12:51:34.514Z,3.10
2023-06-24T12:56:37.469Z,3.40
2023-06-24T13:01:40.724Z,3.40
2023-06-24T13:06:43.609Z,3.20
2023-06-24T13:11:46.770Z,3.70
2023-06-24T13:16:49.661Z,3.50
2023-06-24T13:21:52.570Z,3.30
2023-06-24T13:26:55.393Z,3.70
2023-06-24T13:31:58.252Z,3.50
2023-06-24T13:37:01.894Z,3.00
2023-06-24T13:42:04.999Z,3.10
2023-06-24T13:47:08.202Z,3.40
2023-06-24T13:52:11.077Z,3.20
2023-06-24T13:57:13.994Z,3.20
2023-06-24T14:02:17.010Z,3.70
2023-06-24T14:07:20.283Z,3.70
2023-06-24T14:12:23.479Z,3.70
2023-06-24T14:17:26.478Z,3.00
2023-06-24T14:27:35.331Z,3.70
2023-06-24T14:32:43.944Z,3.60
2023-06-24T14:37:46.812Z,3.60
2023-06-24T14:42:49.656Z,4.10
2023-06-24T14:47:52.835Z,3.90
2023-06-24T14:52:55.657Z,4.50
2023-06-24T14:57:58.943Z,4.40
2023-06-24T15:03:03.935Z,3.50
2023-06-24T15:13:12.961Z,4.00
2023-06-24T15:18:18.257Z,3.70
2023-06-24T15:23:22.408Z,3.80
2023-06-24T15:28:28.198Z,3.90
2023-06-24T15:33:31.254Z,3.90
2023-06-24T15:38:34.194Z,3.90
2023-06-24T15:43:37.128Z,4.40
2023-06-24T15:48:42.476Z,4.40
2023-06-24T15:53:45.500Z,4.10
2023-06-24T15:58:48.450Z,3.70
2023-06-24T16:03:53.896Z,4.40
2023-06-24T16:14:01.305Z,4.20
2023-06-24T16:19:04.774Z,3.90
2023-06-24T16:24:07.625Z,4.40
2023-06-24T16:29:10.459Z,4.70
2023-06-24T16:34:23.311Z,4.10
2023-06-24T16:39:27.495Z,4.10
2023-06-24T16:44:33.966Z,4.00
2023-06-24T16:49:36.780Z,4.30
2023-06-24T16:54:39.554Z,4.40
2023-06-24T16:59:42.501Z,4.20
2023-06-24T17:04:45.372Z,4.30
2023-06-24T17:09:48.349Z,4.20
2023-06-24T17:14:52.413Z,4.00
2023-06-24T17:19:55.279Z,3.00
2023-06-24T17:24:58.359Z,3.70
2023-06-24T17:30:02.721Z,3.90
2023-06-24T17:35:06.067Z,3.70
2023-06-24T17:40:10.009Z,3.40
2023-06-24T17:45:13.069Z,3.20
2023-06-24T17:50:16.511Z,4.20
2023-06-24T17:55:19.536Z,3.70
2023-06-24T18:00:22.477Z,4.50
2023-06-24T18:05:25.853Z,4.20
2023-06-24T18:10:28.949Z,4.10
2023-06-24T18:15:31.936Z,4.70
2023-06-24T18:20:35.080Z,4.90
2023-06-24T18:25:38.415Z,4.10
2023-06-24T18:30:41.244Z,4.20
2023-06-24T18:35:44.227Z,5.50
2023-06-24T18:40:47.024Z,5.10
2023-06-24T18:45:51.768Z,6.20
2023-06-24T18:50:54.863Z,5.10
2023-06-24T18:55:58.231Z,4.70
2023-06-24T19:01:01.603Z,5.10
2023-06-24T19:06:04.406Z,4.00
2023-06-24T19:11:07.394Z,4.30
2023-06-24T19:16:10.205Z,4.80
2023-06-24T19:21:13.250Z,4.20
2023-06-24T19:26:16.132Z,4.50
2023-06-24T19:31:19.225Z,3.70
2023-06-24T19:36:22.261Z,4.50
2023-06-24T19:41:25.068Z,4.50
2023-06-24T19:46:40.122Z,4.50
2023-06-24T19:51:44.475Z,4.10
2023-06-24T19:56:47.372Z,5.20
2023-06-24T20:01:50.217Z,4.00
2023-06-24T20:06:53.206Z,4.10
2023-06-24T20:11:56.262Z,4.70
2023-06-24T20:16:59.030Z,4.30
2023-06-24T20:22:02.556Z,4.50
2023-06-24T20:27:07.825Z,4.70
2023-06-24T20:32:11.955Z,4.90
2023-06-24T20:37:14.917Z,4.60
2023-06-24T20:42:17.804Z,4.30
2023-06-24T20:47:20.606Z,5.10
2023-06-24T20:52:23.490Z,4.60
2023-06-24T20:57:26.300Z,5.70
2023-06-24T21:02:30.300Z,5.50
2023-06-24T21:07:34.540Z,5.60
2023-06-24T21:12:49.620Z,5.40
2023-06-24T21:18:01.723Z,6.90
2023-06-24T21:23:05.638Z,8.10
2023-06-24T21:28:08.652Z,9.70
2023-06-24T21:33:11.630Z,8.50
2023-06-24T21:38:14.431Z,7.70
2023-06-24T21:43:17.580Z,8.10
2023-06-24T21:48:22.861Z,7.90
2023-06-24T21:53:28.350Z,7.40
2023-06-24T21:58:32.844Z,8.30
2023-06-24T22:03:35.646Z,8.30
2023-06-24T22:08:38.611Z,8.10
2023-06-24T22:13:41.473Z,7.80
2023-06-24T22:18:44.303Z,7.90
2023-06-24T22:23:47.183Z,7.80
2023-06-24T22:28:50.510Z,8.40
2023-06-24T22:33:58.691Z,8.30
2023-06-24T22:39:17.064Z,8.80
2023-06-24T22:44:26.564Z,8.30
2023-06-24T22:49:30.276Z,8.20
2023-06-24T22:54:33.044Z,8.20
2023-06-24T22:59:35.862Z,8.80
2023-06-24T23:04:38.846Z,8.60
2023-06-24T23:09:42.026Z,9.00
2023-06-24T23:14:45.178Z,9.30
2023-06-24T23:19:50.047Z,9.10
2023-06-24T23:24:56.301Z,9.30
2023-06-24T23:30:02.045Z,9.40
2023-06-24T23:35:11.919Z,9.70
2023-06-24T23:40:14.823Z,9.10
2023-06-24T23:45:17.975Z,8.60
2023-06-24T23:50:20.782Z,10.10
2023-06-24T23:55:24.975Z,9.60
